Time;durP1;ratioP1;P1;durP2;ratioP2;P2;SDS_P1;SDS_P2;PMS_P1;PMS_P2;Temp;Humidity;BMP_temperature;BMP_pressure;BME280_temperature;BME280_humidity;BME280_pressure;Samples;Min_cycle;Max_cycle;Signal;HPM_P1;HPM_P2
2021/11/18 00:01:47;;;;;;;69.37;10.50;;;;;;;;;;5132107;27;20255;-67
2021/11/18 00:04:16;;;;;;;64.43;8.65;;;;;;;;;;5131718;27;20470;-66
2021/11/18 00:06:44;;;;;;;69.80;10.57;;;;;;;;;;5131803;27;20629;-65
2021/11/18 00:09:11;;;;;;;65.45;9.10;;;;;;;;;;5133272;27;20303;-67
2021/11/18 00:11:40;;;;;;;67.40;10.00;;;;;;;;;;5135644;27;20663;-66
2021/11/18 00:14:07;;;;;;;66.55;9.10;;;;;;;;;;5135713;27;20528;-67
2021/11/18 00:16:35;;;;;;;67.55;9.38;;;;;;;;;;5134993;27;20634;-66
2021/11/18 00:19:04;;;;;;;67.30;9.67;;;;;;;;;;5133548;27;20300;-66
2021/11/18 00:21:33;;;;;;;69.47;10.30;;;;;;;;;;5135417;27;21026;-66
2021/11/18 00:24:01;;;;;;;64.25;8.80;;;;;;;;;;5135642;27;20476;-66
2021/11/18 00:26:29;;;;;;;66.20;8.57;;;;;;;;;;5134975;27;20306;-66
2021/11/18 00:28:58;;;;;;;67.90;10.35;;;;;;;;;;5135345;27;20295;-66
2021/11/18 00:31:27;;;;;;;67.15;9.20;;;;;;;;;;5135742;27;20318;-66
2021/11/18 00:33:54;;;;;;;66.68;10.00;;;;;;;;;;5135350;27;20254;-66
2021/11/18 00:36:21;;;;;;;69.13;10.37;;;;;;;;;;5135101;27;20286;-66
2021/11/18 00:38:49;;;;;;;66.88;9.45;;;;;;;;;;5135328;27;20529;-66
2021/11/18 00:41:17;;;;;;;68.38;10.65;;;;;;;;;;5135624;27;20498;-66
2021/11/18 00:43:45;;;;;;;68.35;9.15;;;;;;;;;;5135046;27;20192;-66
2021/11/18 00:46:13;;;;;;;65.90;8.77;;;;;;;;;;5134631;27;20302;-66
2021/11/18 00:48:41;;;;;;;68.63;9.27;;;;;;;;;;5134947;27;20240;-66
2021/11/18 00:51:09;;;;;;;66.85;9.13;;;;;;;;;;5132958;27;20306;-65
2021/11/18 00:53:37;;;;;;;66.65;9.70;;;;;;;;;;5134813;27;20313;-66
2021/11/18 00:56:05;;;;;;;66.25;9.98;;;;;;;;;;5134516;27;20631;-65
2021/11/18 00:58:32;;;;;;;68.03;10.88;;;;;;;;;;5134817;27;20290;-66
2021/11/18 01:00:59;;;;;;;67.70;10.10;;;;;;;;;;5134780;27;20266;-66
2021/11/18 01:03:28;;;;;;;69.65;11.65;;;;;;;;;;5135096;27;20291;-65
2021/11/18 01:05:56;;;;;;;68.75;10.73;;;;;;;;;;5134310;27;20646;-66
2021/11/18 01:08:23;;;;;;;67.00;10.43;;;;;;;;;;5134857;27;20632;-66
2021/11/18 01:10:52;;;;;;;67.95;10.32;;;;;;;;;;5134388;27;20254;-64
2021/11/18 01:13:19;;;;;;;67.07;10.83;;;;;;;;;;5134331;27;20238;-66
2021/11/18 01:15:47;;;;;;;66.93;10.30;;;;;;;;;;5134465;27;20478;-66
2021/11/18 01:18:15;;;;;;;68.53;9.63;;;;;;;;;;5134796;27;20355;-65
2021/11/18 01:20:44;;;;;;;68.57;10.95;;;;;;;;;;5133924;27;20597;-66
2021/11/18 01:23:13;;;;;;;65.28;9.38;;;;;;;;;;5132860;27;20203;-66
2021/11/18 01:25:40;;;;;;;67.55;10.70;;;;;;;;;;5133638;27;20675;-66
2021/11/18 01:28:07;;;;;;;71.15;10.98;;;;;;;;;;5134120;27;20204;-66
2021/11/18 01:30:35;;;;;;;69.68;10.63;;;;;;;;;;5134357;27;20209;-65
2021/11/18 01:33:04;;;;;;;71.57;11.55;;;;;;;;;;5133865;27;20598;-66
2021/11/18 01:35:32;;;;;;;69.18;11.20;;;;;;;;;;5133962;27;20295;-66
2021/11/18 01:38:00;;;;;;;68.78;11.60;;;;;;;;;;5133908;27;20675;-64
2021/11/18 01:40:30;;;;;;;73.47;12.27;;;;;;;;;;5134134;27;20499;-66
2021/11/18 01:42:58;;;;;;;68.43;10.15;;;;;;;;;;5133933;27;20245;-66
2021/11/18 01:45:26;;;;;;;68.13;10.93;;;;;;;;;;5133793;27;20240;-65
2021/11/18 01:47:53;;;;;;;67.88;10.90;;;;;;;;;;5133924;27;20214;-65
2021/11/18 01:50:23;;;;;;;70.63;12.70;;;;;;;;;;5134136;27;20578;-67
2021/11/18 01:52:51;;;;;;;72.43;12.93;;;;;;;;;;5133989;27;20559;-66
2021/11/18 01:55:21;;;;;;;70.18;12.27;;;;;;;;;;5132232;27;20217;-65
2021/11/18 01:57:48;;;;;;;69.13;11.55;;;;;;;;;;5133888;27;20591;-66
2021/11/18 02:00:18;;;;;;;68.50;11.15;;;;;;;;;;5133515;27;20203;-65
2021/11/18 02:02:46;;;;;;;69.53;12.05;;;;;;;;;;5133579;27;20219;-67
2021/11/18 02:05:17;;;;;;;70.38;11.55;;;;;;;;;;5130645;27;20613;-67
2021/11/18 02:07:45;;;;;;;73.40;13.77;;;;;;;;;;5132906;27;20756;-66
2021/11/18 02:10:14;;;;;;;75.60;12.93;;;;;;;;;;5133678;27;20590;-66
2021/11/18 02:12:42;;;;;;;71.97;12.82;;;;;;;;;;5133463;27;20233;-66
2021/11/18 02:15:17;;;;;;;68.97;12.63;;;;;;;;;;5133255;27;20585;-67
2021/11/18 02:17:44;;;;;;;74.15;13.63;;;;;;;;;;5132948;27;20202;-66
2021/11/18 02:20:19;;;;;;;74.15;11.73;;;;;;;;;;5133142;27;20205;-66
2021/11/18 02:22:46;;;;;;;73.07;13.48;;;;;;;;;;5133519;27;20220;-66
2021/11/18 02:25:14;;;;;;;73.95;14.98;;;;;;;;;;5133231;27;20218;-67
2021/11/18 02:27:41;;;;;;;71.07;12.63;;;;;;;;;;5130892;27;20293;-66
2021/11/18 02:30:10;;;;;;;72.75;13.90;;;;;;;;;;5133264;27;20573;-66
2021/11/18 02:32:40;;;;;;;70.10;11.90;;;;;;;;;;5132358;27;20235;-66
2021/11/18 02:35:14;;;;;;;75.80;13.02;;;;;;;;;;5132953;27;20207;-66
2021/11/18 02:37:43;;;;;;;72.15;12.57;;;;;;;;;;5132831;27;20297;-66
2021/11/18 02:40:11;;;;;;;73.47;13.60;;;;;;;;;;5133254;27;20643;-66
2021/11/18 02:42:39;;;;;;;72.03;12.25;;;;;;;;;;5132550;27;20309;-66
2021/11/18 02:45:08;;;;;;;71.65;12.65;;;;;;;;;;5133069;27;20207;-66
2021/11/18 02:47:35;;;;;;;69.82;12.20;;;;;;;;;;5132604;27;20660;-66
2021/11/18 02:50:02;;;;;;;74.53;12.38;;;;;;;;;;5132948;27;20209;-67
2021/11/18 02:52:32;;;;;;;76.82;13.55;;;;;;;;;;5132745;27;20250;-66
2021/11/18 02:55:02;;;;;;;73.85;13.45;;;;;;;;;;5132372;27;20240;-65
2021/11/18 02:57:29;;;;;;;74.30;12.82;;;;;;;;;;5131456;27;20420;-66
2021/11/18 02:59:56;;;;;;;74.57;12.95;;;;;;;;;;5132455;27;20204;-66
2021/11/18 03:02:24;;;;;;;70.28;12.45;;;;;;;;;;5132554;27;20227;-66
2021/11/18 03:04:51;;;;;;;68.07;11.35;;;;;;;;;;5132814;27;20219;-65
2021/11/18 03:07:19;;;;;;;71.87;11.70;;;;;;;;;;5132409;27;20215;-66
2021/11/18 03:09:46;;;;;;;66.88;10.70;;;;;;;;;;5132224;27;20442;-66
2021/11/18 03:12:14;;;;;;;70.53;11.87;;;;;;;;;;5132817;27;20227;-66
2021/11/18 03:14:41;;;;;;;70.00;12.20;;;;;;;;;;5132585;27;20869;-66
2021/11/18 03:17:09;;;;;;;68.38;10.98;;;;;;;;;;5132160;27;20825;-66
2021/11/18 03:19:36;;;;;;;69.10;11.05;;;;;;;;;;5132501;27;20240;-65
2021/11/18 03:22:03;;;;;;;69.63;12.15;;;;;;;;;;5132103;27;20668;-66
2021/11/18 03:24:30;;;;;;;76.40;11.88;;;;;;;;;;5132299;27;20296;-66
2021/11/18 03:26:58;;;;;;;69.68;11.80;;;;;;;;;;5132288;27;20204;-66
2021/11/18 03:29:27;;;;;;;68.53;11.40;;;;;;;;;;5132352;27;20290;-66
2021/11/18 03:31:54;;;;;;;73.18;11.23;;;;;;;;;;5130292;27;20245;-65
2021/11/18 03:34:24;;;;;;;72.70;13.02;;;;;;;;;;5132286;27;20215;-67
2021/11/18 03:36:52;;;;;;;74.22;12.52;;;;;;;;;;5131663;27;20222;-67
2021/11/18 03:39:20;;;;;;;73.55;12.15;;;;;;;;;;5132235;27;20781;-66
2021/11/18 03:41:55;;;;;;;74.30;12.05;;;;;;;;;;5132238;27;20258;-65
2021/11/18 03:44:23;;;;;;;70.53;11.80;;;;;;;;;;5135672;27;20286;-66
2021/11/18 03:46:52;;;;;;;67.53;10.80;;;;;;;;;;5136204;27;20207;-67
2021/11/18 03:49:20;;;;;;;69.72;12.00;;;;;;;;;;5135859;27;20581;-66
2021/11/18 03:51:48;;;;;;;74.07;13.13;;;;;;;;;;5136319;27;20234;-66
2021/11/18 03:54:16;;;;;;;74.72;12.73;;;;;;;;;;5136081;27;20313;-66
2021/11/18 03:56:44;;;;;;;70.40;11.63;;;;;;;;;;5135885;27;20211;-66
2021/11/18 03:59:12;;;;;;;70.57;13.27;;;;;;;;;;5136059;27;20678;-65
2021/11/18 04:01:39;;;;;;;69.68;11.52;;;;;;;;;;5133947;27;20229;-65
2021/11/18 04:04:09;;;;;;;68.32;10.10;;;;;;;;;;5136156;27;20232;-66
2021/11/18 04:06:38;;;;;;;72.60;11.85;;;;;;;;;;5135695;27;20259;-66
2021/11/18 04:09:05;;;;;;;72.40;11.98;;;;;;;;;;5135771;27;20211;-65
2021/11/18 04:11:33;;;;;;;69.35;12.10;;;;;;;;;;5135563;27;20315;-66
2021/11/18 04:14:00;;;;;;;69.38;11.00;;;;;;;;;;5135877;27;20309;-67
2021/11/18 04:16:27;;;;;;;69.22;10.75;;;;;;;;;;5134878;27;20237;-65
2021/11/18 04:18:54;;;;;;;68.80;11.10;;;;;;;;;;5135992;27;20207;-66
2021/11/18 04:21:23;;;;;;;68.40;11.63;;;;;;;;;;5135742;27;20311;-66
2021/11/18 04:23:50;;;;;;;75.38;11.80;;;;;;;;;;5135636;27;20211;-67
2021/11/18 04:26:17;;;;;;;70.28;11.88;;;;;;;;;;5135457;27;20204;-67
2021/11/18 04:28:44;;;;;;;72.05;12.23;;;;;;;;;;5135376;27;20207;-66
2021/11/18 04:31:14;;;;;;;74.55;12.85;;;;;;;;;;5135190;27;20319;-65
2021/11/18 04:33:41;;;;;;;71.27;13.03;;;;;;;;;;5133225;27;20223;-67
2021/11/18 04:36:10;;;;;;;70.10;11.63;;;;;;;;;;5135195;27;20810;-66
2021/11/18 04:38:39;;;;;;;68.78;11.15;;;;;;;;;;5135320;27;20440;-66
2021/11/18 04:41:07;;;;;;;69.35;11.63;;;;;;;;;;5135432;27;20230;-65
2021/11/18 04:43:34;;;;;;;71.55;11.70;;;;;;;;;;5134879;27;20258;-65
2021/11/18 04:46:02;;;;;;;70.30;12.48;;;;;;;;;;5134858;27;20212;-66
2021/11/18 04:48:29;;;;;;;69.85;11.98;;;;;;;;;;5135385;27;20594;-66
2021/11/18 04:50:56;;;;;;;71.63;11.60;;;;;;;;;;5135080;27;20594;-66
2021/11/18 04:53:26;;;;;;;75.22;12.90;;;;;;;;;;5135240;27;20211;-66
2021/11/18 04:55:54;;;;;;;70.80;11.60;;;;;;;;;;5133907;27;20201;-67
2021/11/18 04:58:22;;;;;;;70.50;11.80;;;;;;;;;;5135102;27;20536;-66
2021/11/18 05:00:50;;;;;;;72.00;11.50;;;;;;;;;;5135015;27;20226;-66
2021/11/18 05:03:18;;;;;;;73.07;12.97;;;;;;;;;;5134681;27;20538;-66
2021/11/18 05:05:46;;;;;;;68.55;12.00;;;;;;;;;;5132999;27;20477;-66
2021/11/18 05:08:13;;;;;;;71.63;12.03;;;;;;;;;;5134941;27;20211;-66
2021/11/18 05:10:40;;;;;;;68.20;11.00;;;;;;;;;;5134353;27;20445;-66
2021/11/18 05:13:09;;;;;;;73.47;12.20;;;;;;;;;;5134961;27;20445;-66
2021/11/18 05:15:37;;;;;;;72.37;12.40;;;;;;;;;;5134522;27;20859;-66
2021/11/18 05:18:04;;;;;;;68.95;11.60;;;;;;;;;;5134665;27;20816;-66
2021/11/18 05:20:32;;;;;;;69.20;11.33;;;;;;;;;;5134527;27;20204;-67
2021/11/18 05:22:59;;;;;;;73.70;12.27;;;;;;;;;;5134403;27;20501;-65
2021/11/18 05:25:29;;;;;;;69.72;12.00;;;;;;;;;;5134357;27;20435;-66
2021/11/18 05:27:56;;;;;;;74.60;13.07;;;;;;;;;;5134717;27;20197;-67
2021/11/18 05:30:27;;;;;;;70.28;11.98;;;;;;;;;;5134106;27;20873;-65
2021/11/18 05:32:55;;;;;;;71.28;12.25;;;;;;;;;;5134320;27;20206;-66
2021/11/18 05:35:22;;;;;;;71.40;12.83;;;;;;;;;;5133748;27;20705;-65
2021/11/18 05:37:49;;;;;;;72.85;12.32;;;;;;;;;;5131958;27;20441;-67
2021/11/18 05:40:17;;;;;;;72.70;13.13;;;;;;;;;;5134343;27;20200;-66
2021/11/18 05:42:44;;;;;;;72.88;13.18;;;;;;;;;;5134143;27;20466;-66
2021/11/18 05:45:13;;;;;;;76.28;13.07;;;;;;;;;;5133966;27;20292;-66
2021/11/18 05:47:42;;;;;;;72.60;12.63;;;;;;;;;;5133633;27;20259;-66
2021/11/18 05:50:10;;;;;;;73.47;13.70;;;;;;;;;;5133561;27;20444;-66
2021/11/18 05:52:37;;;;;;;75.38;13.50;;;;;;;;;;5133660;27;20476;-66
2021/11/18 05:55:05;;;;;;;73.95;12.90;;;;;;;;;;5133708;27;20226;-66
2021/11/18 05:57:32;;;;;;;74.75;13.93;;;;;;;;;;5133310;27;20199;-65
2021/11/18 05:59:59;;;;;;;70.68;11.52;;;;;;;;;;5133517;27;20687;-67
2021/11/18 06:02:27;;;;;;;71.68;13.63;;;;;;;;;;5133376;27;20309;-66
2021/11/18 06:04:55;;;;;;;71.47;12.50;;;;;;;;;;5133303;27;20307;-66
2021/11/18 06:07:22;;;;;;;70.80;12.88;;;;;;;;;;5132400;27;20446;-65
2021/11/18 06:09:49;;;;;;;72.63;13.60;;;;;;;;;;5121775;27;20211;-66
2021/11/18 06:12:19;;;;;;;70.18;11.75;;;;;;;;;;5112671;28;20313;-65
2021/11/18 06:14:46;;;;;;;74.90;13.63;;;;;;;;;;5112708;27;20270;-66
2021/11/18 06:17:13;;;;;;;74.47;14.20;;;;;;;;;;5120801;27;20201;-65
2021/11/18 06:19:41;;;;;;;72.13;12.07;;;;;;;;;;5133341;27;20586;-66
2021/11/18 06:22:10;;;;;;;70.90;12.23;;;;;;;;;;5133416;27;20223;-66
2021/11/18 06:24:37;;;;;;;71.85;13.82;;;;;;;;;;5133081;27;20199;-66
2021/11/18 06:27:05;;;;;;;75.97;13.57;;;;;;;;;;5133058;27;20748;-67
2021/11/18 06:29:33;;;;;;;71.45;12.52;;;;;;;;;;5133039;27;20203;-67
2021/11/18 06:32:01;;;;;;;76.10;13.85;;;;;;;;;;5133150;27;20315;-67
2021/11/18 06:34:29;;;;;;;76.43;14.45;;;;;;;;;;5133005;27;20313;-67
2021/11/18 06:36:56;;;;;;;73.65;13.90;;;;;;;;;;5132852;27;20294;-67
2021/11/18 06:39:25;;;;;;;72.63;13.30;;;;;;;;;;5132549;27;20291;-66
2021/11/18 06:41:52;;;;;;;79.47;14.63;;;;;;;;;;5130933;27;20595;-67
2021/11/18 06:44:20;;;;;;;73.90;13.02;;;;;;;;;;5132678;27;20203;-67
2021/11/18 06:46:47;;;;;;;73.90;12.63;;;;;;;;;;5132506;27;20211;-67
2021/11/18 06:49:14;;;;;;;73.47;13.90;;;;;;;;;;5132948;27;20199;-67
2021/11/18 06:51:43;;;;;;;73.32;13.65;;;;;;;;;;5132371;27;20220;-67
2021/11/18 06:54:12;;;;;;;72.35;13.10;;;;;;;;;;5132828;27;20699;-67
2021/11/18 06:56:40;;;;;;;76.13;14.38;;;;;;;;;;5132383;27;20204;-67
2021/11/18 06:59:08;;;;;;;80.32;14.98;;;;;;;;;;5132522;27;20592;-67
2021/11/18 07:01:35;;;;;;;78.20;14.20;;;;;;;;;;5132694;27;20321;-67
2021/11/18 07:04:06;;;;;;;76.67;14.83;;;;;;;;;;5132608;27;20450;-66
2021/11/18 07:06:34;;;;;;;70.15;11.90;;;;;;;;;;5132244;27;20468;-67
2021/11/18 07:09:01;;;;;;;76.55;13.38;;;;;;;;;;5132640;27;20309;-67
2021/11/18 07:11:29;;;;;;;78.70;15.10;;;;;;;;;;5132186;27;20267;-68
2021/11/18 07:13:57;;;;;;;71.75;12.52;;;;;;;;;;5130451;27;20446;-67
2021/11/18 07:16:24;;;;;;;72.82;13.93;;;;;;;;;;5132069;27;20204;-66
2021/11/18 07:18:52;;;;;;;73.73;12.70;;;;;;;;;;5132069;27;20206;-68
2021/11/18 07:21:22;;;;;;;77.23;14.20;;;;;;;;;;5132526;27;20548;-67
2021/11/18 07:23:50;;;;;;;79.67;14.90;;;;;;;;;;5132139;27;20445;-67
2021/11/18 07:26:17;;;;;;;76.90;13.50;;;;;;;;;;5132152;27;20438;-67
2021/11/18 07:28:45;;;;;;;74.20;12.97;;;;;;;;;;5132525;27;20906;-67
2021/11/18 07:31:14;;;;;;;77.80;14.37;;;;;;;;;;5132063;27;20833;-67
2021/11/18 07:33:42;;;;;;;74.73;14.10;;;;;;;;;;5132206;27;20536;-66
2021/11/18 07:36:09;;;;;;;76.85;14.75;;;;;;;;;;5132073;27;20917;-66
2021/11/18 07:38:37;;;;;;;79.00;14.93;;;;;;;;;;5132240;27;20214;-67
2021/11/18 07:41:04;;;;;;;79.03;14.67;;;;;;;;;;5132547;27;20467;-67
2021/11/18 07:43:33;;;;;;;76.53;13.23;;;;;;;;;;5132219;27;20445;-67
2021/11/18 07:46:01;;;;;;;77.57;14.00;;;;;;;;;;5129978;27;20298;-67
2021/11/18 07:48:29;;;;;;;82.80;14.33;;;;;;;;;;5132250;27;20472;-67
2021/11/18 07:50:57;;;;;;;77.30;15.37;;;;;;;;;;5131404;27;20814;-67
2021/11/18 07:53:25;;;;;;;74.20;14.10;;;;;;;;;;5130806;27;20779;-67
2021/11/18 07:55:52;;;;;;;77.03;15.18;;;;;;;;;;5131695;27;20481;-66
2021/11/18 07:58:19;;;;;;;76.40;13.90;;;;;;;;;;5132167;27;20295;-67
2021/11/18 08:00:48;;;;;;;84.20;14.33;;;;;;;;;;5132093;27;20479;-67
2021/11/18 08:03:15;;;;;;;76.33;14.20;;;;;;;;;;5132038;27;20484;-67
2021/11/18 08:05:44;;;;;;;75.20;14.00;;;;;;;;;;5131361;27;20549;-67
2021/11/18 08:08:12;;;;;;;76.97;13.82;;;;;;;;;;5132087;27;20451;-67
2021/11/18 08:10:39;;;;;;;78.78;14.70;;;;;;;;;;5131945;27;20213;-66
2021/11/18 08:13:06;;;;;;;82.38;15.43;;;;;;;;;;5131895;27;20295;-66
2021/11/18 08:15:34;;;;;;;90.00;15.43;;;;;;;;;;5131197;27;20774;-66
2021/11/18 08:18:01;;;;;;;87.80;15.13;;;;;;;;;;5130038;27;20238;-67
2021/11/18 08:20:29;;;;;;;84.72;15.00;;;;;;;;;;5131937;27;20202;-66
2021/11/18 08:22:57;;;;;;;82.22;15.15;;;;;;;;;;5132044;27;20581;-67
2021/11/18 08:25:26;;;;;;;77.30;14.75;;;;;;;;;;5131916;27;20221;-67
2021/11/18 08:27:53;;;;;;;77.40;14.57;;;;;;;;;;5132042;27;20661;-67
2021/11/18 08:30:22;;;;;;;79.93;17.10;;;;;;;;;;5133115;27;20201;-67
2021/11/18 08:32:51;;;;;;;78.97;15.60;;;;;;;;;;5135085;27;20535;-67
2021/11/18 08:35:19;;;;;;;78.17;15.43;;;;;;;;;;5135467;27;20538;-67
2021/11/18 08:37:46;;;;;;;81.30;15.87;;;;;;;;;;5135312;27;20478;-67
2021/11/18 08:40:17;;;;;;;77.90;15.00;;;;;;;;;;5135190;27;20443;-68
2021/11/18 08:42:44;;;;;;;82.75;15.93;;;;;;;;;;5135244;27;20497;-68
2021/11/18 08:45:11;;;;;;;83.07;16.52;;;;;;;;;;5134972;27;20206;-67
2021/11/18 08:47:38;;;;;;;83.17;15.77;;;;;;;;;;5135047;27;20733;-67
2021/11/18 08:50:06;;;;;;;80.20;15.63;;;;;;;;;;5135357;27;20970;-67
2021/11/18 08:52:35;;;;;;;81.83;15.63;;;;;;;;;;5134954;27;20545;-68
2021/11/18 08:55:04;;;;;;;82.50;18.00;;;;;;;;;;5134793;27;20484;-67
2021/11/18 08:57:32;;;;;;;82.60;15.73;;;;;;;;;;5134796;27;20887;-66
2021/11/18 08:59:59;;;;;;;79.83;14.67;;;;;;;;;;5132982;27;20482;-66
2021/11/18 09:02:28;;;;;;;76.67;15.27;;;;;;;;;;5134806;27;20473;-67
2021/11/18 09:04:56;;;;;;;78.97;14.63;;;;;;;;;;5134788;27;20847;-66
2021/11/18 09:07:23;;;;;;;83.55;16.63;;;;;;;;;;5134504;27;20464;-67
2021/11/18 09:09:50;;;;;;;80.70;16.20;;;;;;;;;;5134670;27;20211;-66
2021/11/18 09:12:17;;;;;;;78.43;16.10;;;;;;;;;;5134274;27;20553;-66
2021/11/18 09:14:46;;;;;;;78.23;14.57;;;;;;;;;;5134283;27;20994;-67
2021/11/18 09:17:14;;;;;;;81.70;14.67;;;;;;;;;;5134324;27;20536;-67
2021/11/18 09:19:42;;;;;;;79.50;15.57;;;;;;;;;;5134650;27;20447;-66
2021/11/18 09:22:11;;;;;;;86.40;17.20;;;;;;;;;;5134366;27;20471;-67
2021/11/18 09:24:40;;;;;;;78.63;14.93;;;;;;;;;;5134655;27;20528;-65
2021/11/18 09:27:13;;;;;;;81.07;15.50;;;;;;;;;;5134253;27;20447;-67
2021/11/18 09:29:40;;;;;;;77.80;15.47;;;;;;;;;;5132708;27;20485;-65
2021/11/18 09:32:08;;;;;;;85.23;16.40;;;;;;;;;;5134317;27;20469;-66
2021/11/18 09:34:36;;;;;;;77.80;16.07;;;;;;;;;;5134105;27;20446;-67
2021/11/18 09:37:03;;;;;;;78.20;14.70;;;;;;;;;;5133878;27;20549;-66
2021/11/18 09:39:30;;;;;;;83.73;14.97;;;;;;;;;;5133895;27;20501;-67
2021/11/18 09:42:02;;;;;;;84.03;16.60;;;;;;;;;;5133399;27;21044;-66
2021/11/18 09:44:41;;;;;;;87.27;16.43;;;;;;;;;;5134351;27;20446;-66
2021/11/18 09:47:36;;;;;;;91.90;17.30;;;;;;;;;;5131788;27;20447;-65
2021/11/18 09:50:11;;;;;;;83.03;15.60;;;;;;;;;;5134279;27;20454;-65
2021/11/18 09:52:42;;;;;;;82.57;15.60;;;;;;;;;;5133725;27;20472;-66
2021/11/18 09:55:10;;;;;;;80.90;16.53;;;;;;;;;;5133523;27;20484;-65
2021/11/18 09:57:54;;;;;;;82.43;17.47;;;;;;;;;;5133527;27;20846;-69
2021/11/18 10:00:27;;;;;;;85.90;17.63;;;;;;;;;;5133730;27;20441;-66
2021/11/18 10:02:59;;;;;;;79.10;16.10;;;;;;;;;;5133550;27;20449;-66
2021/11/18 10:05:29;;;;;;;83.03;16.93;;;;;;;;;;5133459;27;20822;-66
2021/11/18 10:07:58;;;;;;;90.77;19.60;;;;;;;;;;5133433;27;20451;-66
2021/11/18 10:10:29;;;;;;;85.40;18.43;;;;;;;;;;5133343;27;20465;-66
2021/11/18 10:13:12;;;;;;;79.87;16.40;;;;;;;;;;5133528;27;20533;-66
2021/11/18 10:15:41;;;;;;;84.53;16.50;;;;;;;;;;5130657;27;20571;-66
2021/11/18 10:18:13;;;;;;;80.63;17.73;;;;;;;;;;5132014;27;20447;-66
2021/11/18 10:20:43;;;;;;;82.27;15.90;;;;;;;;;;5133288;27;20984;-66
2021/11/18 10:23:11;;;;;;;84.23;16.33;;;;;;;;;;5133085;27;20490;-67
2021/11/18 10:25:40;;;;;;;89.23;17.40;;;;;;;;;;5133071;27;20923;-66
2021/11/18 10:28:22;;;;;;;86.60;15.33;;;;;;;;;;5133014;27;20443;-65
2021/11/18 10:30:54;;;;;;;82.83;16.73;;;;;;;;;;5133014;27;20463;-67
2021/11/18 10:33:23;;;;;;;83.20;15.13;;;;;;;;;;5132882;27;20444;-66
2021/11/18 10:36:04;;;;;;;87.80;15.13;;;;;;;;;;5132789;27;20486;-64
2021/11/18 10:38:38;;;;;;;83.40;14.80;;;;;;;;;;5133397;27;20456;-65
2021/11/18 10:41:06;;;;;;;78.40;15.07;;;;;;;;;;5132967;27;20460;-66
2021/11/18 10:43:35;;;;;;;77.30;14.23;;;;;;;;;;5133033;27;20479;-66
2021/11/18 10:46:13;;;;;;;79.47;14.60;;;;;;;;;;5132404;27;20944;-66
2021/11/18 10:48:43;;;;;;;78.80;15.60;;;;;;;;;;5130385;27;20443;-64
2021/11/18 10:51:13;;;;;;;76.87;14.47;;;;;;;;;;5132780;27;20552;-64
2021/11/18 10:53:46;;;;;;;75.47;13.07;;;;;;;;;;5132227;27;20888;-67
2021/11/18 10:56:16;;;;;;;74.63;13.77;;;;;;;;;;5132240;27;20560;-67
2021/11/18 10:58:45;;;;;;;75.50;13.17;;;;;;;;;;5132664;27;21020;-66
2021/11/18 11:01:14;;;;;;;76.27;13.87;;;;;;;;;;5132525;27;20492;-64
2021/11/18 11:03:43;;;;;;;73.60;13.90;;;;;;;;;;5132661;27;20525;-64
2021/11/18 11:06:28;;;;;;;77.47;14.03;;;;;;;;;;5132227;27;20850;-65
2021/11/18 11:09:04;;;;;;;76.77;13.87;;;;;;;;;;5132314;27;20443;-64
2021/11/18 11:11:52;;;;;;;77.87;14.37;;;;;;;;;;5132518;27;20492;-67
2021/11/18 11:14:41;;;;;;;84.43;14.10;;;;;;;;;;5132382;27;20890;-66
2021/11/18 11:17:21;;;;;;;74.30;13.30;;;;;;;;;;5132116;27;20565;-66
2021/11/18 11:19:52;;;;;;;75.17;13.43;;;;;;;;;;5131222;27;20492;-66
2021/11/18 11:22:23;;;;;;;77.33;12.80;;;;;;;;;;5111958;28;20548;-66
2021/11/18 11:25:08;;;;;;;74.50;12.60;;;;;;;;;;5111840;28;20443;-66
2021/11/18 11:27:45;;;;;;;82.37;13.57;;;;;;;;;;5111245;28;20948;-65
2021/11/18 11:30:16;;;;;;;76.37;13.83;;;;;;;;;;5111986;28;20437;-66
2021/11/18 11:32:47;;;;;;;74.83;13.03;;;;;;;;;;5111969;28;20461;-67
2021/11/18 11:35:26;;;;;;;70.97;12.03;;;;;;;;;;5111391;28;20441;-67
2021/11/18 11:38:14;;;;;;;76.07;12.77;;;;;;;;;;5111715;28;20480;-67
2021/11/18 11:40:49;;;;;;;72.27;11.80;;;;;;;;;;5111593;28;20460;-66
2021/11/18 11:43:26;;;;;;;78.47;12.40;;;;;;;;;;5111722;28;20535;-67
2021/11/18 11:45:56;;;;;;;76.00;11.10;;;;;;;;;;5111452;28;20488;-67
2021/11/18 11:48:36;;;;;;;73.47;13.13;;;;;;;;;;5111466;28;20445;-66
2021/11/18 11:51:18;;;;;;;75.10;12.37;;;;;;;;;;5111775;28;20507;-67
2021/11/18 11:53:52;;;;;;;73.67;11.97;;;;;;;;;;5111260;28;20828;-66
2021/11/18 11:56:22;;;;;;;74.60;12.90;;;;;;;;;;5111097;28;20476;-65
2021/11/18 11:58:53;;;;;;;77.27;14.10;;;;;;;;;;5111585;28;20971;-66
2021/11/18 12:01:21;;;;;;;79.63;13.57;;;;;;;;;;5122670;28;20471;-66
2021/11/18 12:03:51;;;;;;;70.30;12.33;;;;;;;;;;5132071;27;20441;-67
2021/11/18 12:06:21;;;;;;;71.47;11.80;;;;;;;;;;5134809;27;20484;-65
2021/11/18 12:08:51;;;;;;;73.50;11.73;;;;;;;;;;5135842;27;20547;-66
2021/11/18 12:11:19;;;;;;;72.80;12.57;;;;;;;;;;5135887;27;20468;-66
2021/11/18 12:13:50;;;;;;;73.03;10.73;;;;;;;;;;5135922;27;20539;-66
2021/11/18 12:16:21;;;;;;;76.37;11.57;;;;;;;;;;5135497;27;20848;-66
2021/11/18 12:18:50;;;;;;;73.17;11.90;;;;;;;;;;5135751;27;20543;-67
2021/11/18 12:21:18;;;;;;;69.33;12.10;;;;;;;;;;5135666;27;20851;-65
2021/11/18 12:24:04;;;;;;;69.87;9.80;;;;;;;;;;5133542;27;20444;-66
2021/11/18 12:26:43;;;;;;;69.63;11.20;;;;;;;;;;5134728;27;20980;-66
2021/11/18 12:29:20;;;;;;;71.23;10.50;;;;;;;;;;5135119;27;20440;-64
2021/11/18 12:32:02;;;;;;;72.30;11.70;;;;;;;;;;5134132;27;20684;-64
2021/11/18 12:34:47;;;;;;;67.27;9.87;;;;;;;;;;5135252;27;20430;-64
2021/11/18 12:37:18;;;;;;;79.20;11.50;;;;;;;;;;5135373;27;20483;-64
2021/11/18 12:39:51;;;;;;;75.50;13.07;;;;;;;;;;5135043;27;20929;-65
2021/11/18 12:42:23;;;;;;;73.40;13.07;;;;;;;;;;5133688;27;20486;-65
2021/11/18 12:44:58;;;;;;;71.93;14.07;;;;;;;;;;5134521;27;20572;-64
2021/11/18 12:47:40;;;;;;;72.13;12.07;;;;;;;;;;5134006;27;20447;-65
2021/11/18 12:50:13;;;;;;;72.20;13.03;;;;;;;;;;5134160;27;20447;-64
2021/11/18 12:52:42;;;;;;;73.17;12.57;;;;;;;;;;5135171;27;20543;-65
2021/11/18 12:55:25;;;;;;;72.80;13.70;;;;;;;;;;5133185;27;20444;-64
2021/11/18 12:57:54;;;;;;;77.37;12.90;;;;;;;;;;5134930;27;20480;-65
2021/11/18 13:00:39;;;;;;;83.47;16.57;;;;;;;;;;5135398;27;20440;-65
2021/11/18 13:03:07;;;;;;;83.53;16.03;;;;;;;;;;5135187;27;20457;-65
2021/11/18 13:05:48;;;;;;;78.33;15.43;;;;;;;;;;5134272;27;20552;-65
2021/11/18 13:08:42;;;;;;;83.17;16.57;;;;;;;;;;5134796;27;20444;-65
2021/11/18 13:11:24;;;;;;;78.83;14.40;;;;;;;;;;5098260;27;20482;-66
2021/11/18 13:14:12;;;;;;;75.90;12.83;;;;;;;;;;5134580;27;20539;-64
2021/11/18 13:16:55;;;;;;;72.90;12.37;;;;;;;;;;5133662;27;20849;-65
2021/11/18 13:19:32;;;;;;;79.77;13.33;;;;;;;;;;5134886;27;20495;-65
2021/11/18 13:22:02;;;;;;;84.93;17.33;;;;;;;;;;5134399;27;20542;-65
2021/11/18 13:24:37;;;;;;;77.03;14.33;;;;;;;;;;5134591;27;20932;-65
2021/11/18 13:27:04;;;;;;;75.50;13.10;;;;;;;;;;5134348;27;20954;-65
2021/11/18 13:29:32;;;;;;;72.50;12.37;;;;;;;;;;5132539;27;20449;-66
2021/11/18 13:32:09;;;;;;;74.80;12.70;;;;;;;;;;5134467;27;20479;-65
2021/11/18 13:34:38;;;;;;;72.83;12.53;;;;;;;;;;5134190;27;20486;-65
2021/11/18 13:37:08;;;;;;;72.53;13.13;;;;;;;;;;5133886;27;20925;-64
2021/11/18 13:39:38;;;;;;;73.80;11.87;;;;;;;;;;5134417;27;20528;-63
2021/11/18 13:42:17;;;;;;;74.40;11.77;;;;;;;;;;5134133;27;20547;-65
2021/11/18 13:44:48;;;;;;;73.33;13.87;;;;;;;;;;5134347;27;20531;-66
2021/11/18 13:47:22;;;;;;;74.37;13.17;;;;;;;;;;5133923;27;20451;-66
2021/11/18 13:49:51;;;;;;;78.57;12.93;;;;;;;;;;5134051;27;20535;-65
2021/11/18 13:52:25;;;;;;;70.67;12.20;;;;;;;;;;5134013;27;20461;-65
2021/11/18 13:54:54;;;;;;;73.67;11.03;;;;;;;;;;5133796;27;20448;-65
2021/11/18 13:57:30;;;;;;;72.60;11.50;;;;;;;;;;5133292;27;20478;-66
2021/11/18 13:59:59;;;;;;;72.33;11.60;;;;;;;;;;5133943;27;20517;-65
2021/11/18 14:02:32;;;;;;;71.13;11.80;;;;;;;;;;5112559;27;20468;-65
2021/11/18 14:05:01;;;;;;;76.40;13.10;;;;;;;;;;5113021;27;20547;-65
2021/11/18 14:07:30;;;;;;;71.53;11.70;;;;;;;;;;5112956;28;20512;-66
2021/11/18 14:10:01;;;;;;;69.90;10.30;;;;;;;;;;5119345;27;20546;-66
2021/11/18 14:12:32;;;;;;;69.37;11.27;;;;;;;;;;5133367;27;20464;-65
2021/11/18 14:15:14;;;;;;;69.37;10.07;;;;;;;;;;5133583;27;20475;-66
2021/11/18 14:17:50;;;;;;;68.80;10.27;;;;;;;;;;5132959;27;20488;-66
2021/11/18 14:20:26;;;;;;;66.37;9.23;;;;;;;;;;5133662;27;20455;-66
2021/11/18 14:22:53;;;;;;;67.07;9.77;;;;;;;;;;5133497;27;20435;-65
2021/11/18 14:25:29;;;;;;;65.40;9.20;;;;;;;;;;5133217;27;20839;-63
2021/11/18 14:27:57;;;;;;;66.20;9.00;;;;;;;;;;5132540;27;20443;-65
2021/11/18 14:30:35;;;;;;;67.80;8.60;;;;;;;;;;5133192;27;20444;-65
2021/11/18 14:33:05;;;;;;;66.40;9.20;;;;;;;;;;5130955;27;20485;-65
2021/11/18 14:35:36;;;;;;;68.30;9.90;;;;;;;;;;5132985;27;20443;-65